createdAt,value
2022-11-10T08:29:15.746Z,65.00
2022-11-10T08:32:02.209Z,67.05
2022-11-10T08:34:48.916Z,53.55
2022-11-10T08:37:35.322Z,59.45
2022-11-10T08:40:22.582Z,58.88
2022-11-10T08:43:09.284Z,58.55
2022-11-10T08:45:57.838Z,57.60
2022-11-10T08:48:44.133Z,52.67
2022-11-10T08:51:33.721Z,60.05
2022-11-10T08:54:23.921Z,59.05
2022-11-10T08:57:10.213Z,61.25
2022-11-10T08:59:56.516Z,53.55
2022-11-10T09:02:43.986Z,57.53
2022-11-10T09:05:30.140Z,56.25
2022-11-10T09:08:16.937Z,56.58
2022-11-10T09:11:03.983Z,50.65
2022-11-10T09:13:50.142Z,53.20
2022-11-10T09:16:36.552Z,45.22
2022-11-10T09:19:24.511Z,50.22
2022-11-10T09:22:11.014Z,48.73
2022-11-10T09:24:57.735Z,51.70
2022-11-10T09:27:44.260Z,49.38
2022-11-10T09:30:30.373Z,45.08
2022-11-10T09:33:17.345Z,53.30
2022-11-10T09:36:07.016Z,56.22
2022-11-10T09:38:53.146Z,56.72
2022-11-10T09:41:40.620Z,57.65
2022-11-10T09:44:29.183Z,55.45
2022-11-10T09:47:42.326Z,55.60
2022-11-10T09:50:27.986Z,56.45
2022-11-10T09:53:17.271Z,61.58
2022-11-10T09:56:04.531Z,53.95
2022-11-10T09:58:51.286Z,55.65
2022-11-10T10:01:42.217Z,57.75
2022-11-10T10:04:38.042Z,52.25
2022-11-10T10:07:26.261Z,56.28
2022-11-10T10:10:17.809Z,56.67
2022-11-10T10:13:24.253Z,57.03
2022-11-10T10:16:13.289Z,63.83
2022-11-10T10:19:03.058Z,57.22
2022-11-10T10:21:56.242Z,52.60
2022-11-10T10:24:42.451Z,56.03
2022-11-10T10:27:30.962Z,56.40
2022-11-10T10:30:18.575Z,58.00
2022-11-10T10:33:13.889Z,59.03
2022-11-10T10:36:01.943Z,52.28
2022-11-10T10:38:50.031Z,52.10
2022-11-10T10:41:40.744Z,55.72
2022-11-10T10:44:29.377Z,52.22
2022-11-10T10:47:16.130Z,52.17
2022-11-10T10:50:16.655Z,63.35
2022-11-10T10:53:20.889Z,52.05
2022-11-10T10:56:08.619Z,64.68
2022-11-10T10:58:55.331Z,52.90
2022-11-10T11:01:44.702Z,57.75
2022-11-10T11:04:33.010Z,57.35
2022-11-10T11:07:23.388Z,60.08
2022-11-10T11:10:27.713Z,51.75
2022-11-10T11:13:16.347Z,58.15
2022-11-10T11:16:03.478Z,55.83
2022-11-10T11:18:51.981Z,54.08
2022-11-10T11:21:41.984Z,57.17
2022-11-10T11:24:31.463Z,53.47
2022-11-10T11:27:21.860Z,57.28
2022-11-10T11:30:11.033Z,54.53
2022-11-10T11:33:15.802Z,54.42
2022-11-10T11:36:08.310Z,54.38
2022-11-10T11:38:57.286Z,54.58
2022-11-10T11:41:46.046Z,50.15
2022-11-10T11:44:47.034Z,48.05
2022-11-10T11:47:38.933Z,48.28
2022-11-10T11:50:29.341Z,49.22
2022-11-10T11:53:22.365Z,51.45
2022-11-10T11:56:14.206Z,51.22
2022-11-10T11:59:04.952Z,52.33
2022-11-10T12:01:57.605Z,48.95
2022-11-10T12:04:45.580Z,65.78
2022-11-10T12:07:43.126Z,57.05
2022-11-10T12:10:36.427Z,57.08
2022-11-10T12:13:29.266Z,54.58
2022-11-10T12:16:19.138Z,58.22
2022-11-10T12:19:09.953Z,54.13
2022-11-10T12:21:59.072Z,55.28
2022-11-10T12:27:34.636Z,56.25
2022-11-10T12:30:21.132Z,52.75
2022-11-10T12:33:13.987Z,63.00
2022-11-10T12:36:02.144Z,57.92
2022-11-10T12:38:59.549Z,56.75
2022-11-10T12:41:48.120Z,56.90
2022-11-10T12:44:37.675Z,58.90
2022-11-10T12:47:26.280Z,53.53
2022-11-10T12:50:23.205Z,62.20
2022-11-10T12:53:13.471Z,65.63
2022-11-10T12:56:01.719Z,57.90
2022-11-10T12:58:47.984Z,54.05
2022-11-10T13:01:35.792Z,61.42
2022-11-10T13:04:22.014Z,62.80
2022-11-10T13:07:13.176Z,58.40
2022-11-10T13:10:16.440Z,58.15
2022-11-10T13:13:07.600Z,57.60
2022-11-10T13:15:55.457Z,55.90
2022-11-10T13:18:59.641Z,55.63
2022-11-10T13:22:06.810Z,58.20
2022-11-10T13:24:53.446Z,62.00
2022-11-10T13:27:52.419Z,60.58
2022-11-10T13:30:40.852Z,58.45
2022-11-10T13:33:37.406Z,62.15
2022-11-10T13:36:37.592Z,59.50
2022-11-10T13:39:26.957Z,59.05
2022-11-10T13:42:18.764Z,63.42
2022-11-10T13:45:20.257Z,61.33
2022-11-10T13:48:08.653Z,53.90
2022-11-10T13:51:01.003Z,60.08
2022-11-10T13:53:52.082Z,58.45
2022-11-10T13:56:47.554Z,61.70
2022-11-10T13:59:36.456Z,63.42
2022-11-10T14:02:41.559Z,68.50
2022-11-10T14:06:01.373Z,63.13
2022-11-10T14:08:50.503Z,59.80
2022-11-10T14:11:38.049Z,60.40
2022-11-10T14:14:28.308Z,66.03
2022-11-10T14:17:17.496Z,60.58
2022-11-10T14:20:05.031Z,63.13
2022-11-10T14:22:52.163Z,60.00
2022-11-10T14:25:40.829Z,61.30
2022-11-10T14:28:27.439Z,59.78
2022-11-10T14:31:19.236Z,78.07
2022-11-10T14:34:05.674Z,61.58
2022-11-10T14:36:53.094Z,57.22
2022-11-10T14:39:39.382Z,59.13
2022-11-10T14:42:26.799Z,70.90
2022-11-10T14:45:16.909Z,64.07
2022-11-10T14:48:17.263Z,59.35
2022-11-10T14:51:04.102Z,57.17
2022-11-10T14:53:51.153Z,57.47
2022-11-10T14:56:38.005Z,61.97
2022-11-10T14:59:25.520Z,57.50
2022-11-10T15:02:14.608Z,55.92
2022-11-10T15:05:03.929Z,58.25
2022-11-10T15:10:44.722Z,62.72
2022-11-10T15:13:38.606Z,56.88
2022-11-10T15:16:26.566Z,55.05
2022-11-10T15:19:28.245Z,61.35
2022-11-10T15:22:17.892Z,55.28
2022-11-10T15:25:09.563Z,53.58
2022-11-10T15:27:58.599Z,57.65
2022-11-10T15:30:51.698Z,55.17
2022-11-10T15:33:39.012Z,55.63
2022-11-10T15:36:29.326Z,51.88
2022-11-10T15:39:20.139Z,54.47
2022-11-10T15:42:13.755Z,60.05
2022-11-10T15:45:00.297Z,60.10
2022-11-10T15:47:47.164Z,53.47
2022-11-10T15:50:33.804Z,55.67
2022-11-10T15:53:23.488Z,57.33
2022-11-10T15:56:13.334Z,56.28
2022-11-10T15:59:02.575Z,59.28
2022-11-10T16:01:49.737Z,51.67
2022-11-10T16:04:36.133Z,58.17
2022-11-10T16:07:22.783Z,52.20
2022-11-10T16:10:09.380Z,54.03
2022-11-10T16:12:56.820Z,57.83
2022-11-10T16:15:43.381Z,61.97
2022-11-10T16:18:30.726Z,57.45
2022-11-10T16:21:17.998Z,53.60
2022-11-10T16:24:04.426Z,56.05
2022-11-10T16:26:50.499Z,53.67
2022-11-10T16:29:38.411Z,48.13
2022-11-10T16:32:25.321Z,49.70
2022-11-10T16:35:13.148Z,50.80
2022-11-10T16:37:59.390Z,53.20
2022-11-10T16:40:46.175Z,50.45
2022-11-10T16:43:32.807Z,55.42
2022-11-10T16:46:23.037Z,50.60
2022-11-10T16:49:19.354Z,53.85
2022-11-10T16:52:12.307Z,53.97
2022-11-10T16:54:58.851Z,54.38
2022-11-10T16:57:45.355Z,56.70
2022-11-10T17:00:31.386Z,51.10
2022-11-10T17:03:21.258Z,51.97
2022-11-10T17:06:07.717Z,52.45
2022-11-10T17:08:55.333Z,56.60
2022-11-10T17:11:41.591Z,57.90
2022-11-10T17:14:27.946Z,52.08
2022-11-10T17:17:16.345Z,55.92
2022-11-10T17:20:04.935Z,57.60
2022-11-10T17:22:51.352Z,61.33
2022-11-10T17:25:37.810Z,53.05
2022-11-10T17:28:24.324Z,61.33
2022-11-10T17:31:12.259Z,58.17
2022-11-10T17:33:58.402Z,53.97
2022-11-10T17:36:46.125Z,54.53
2022-11-10T17:39:33.117Z,53.25
2022-11-10T17:42:19.599Z,50.88
2022-11-10T17:45:06.007Z,52.60
2022-11-10T17:47:52.879Z,53.78
2022-11-10T17:50:40.311Z,52.55
2022-11-10T17:53:28.752Z,53.17
2022-11-10T17:56:14.777Z,44.05
2022-11-10T17:59:01.139Z,50.08
2022-11-10T18:01:47.585Z,49.60
2022-11-10T18:04:34.283Z,42.60
2022-11-10T18:07:20.524Z,48.92
2022-11-10T18:10:09.366Z,47.00
2022-11-10T18:12:55.800Z,50.50
2022-11-10T18:15:42.716Z,49.35
2022-11-10T18:18:29.480Z,47.38
2022-11-10T18:21:15.646Z,52.33
2022-11-10T18:24:02.007Z,44.05
2022-11-10T18:26:49.566Z,44.92
2022-11-10T18:29:36.365Z,42.92
2022-11-10T18:32:23.206Z,51.60
2022-11-10T18:35:09.995Z,45.38
2022-11-10T18:37:56.014Z,44.35
2022-11-10T18:40:42.306Z,45.92
2022-11-10T18:43:29.764Z,55.65
2022-11-10T18:46:16.051Z,45.70
2022-11-10T18:49:02.479Z,45.72
2022-11-10T18:51:48.566Z,41.47
2022-11-10T18:54:34.611Z,46.15
2022-11-10T18:57:21.066Z,42.00
2022-11-10T19:00:10.075Z,37.97
2022-11-10T19:02:56.315Z,37.17
2022-11-10T19:05:42.782Z,34.45
2022-11-10T19:08:29.418Z,34.38
2022-11-10T19:11:17.134Z,29.00
2022-11-10T19:14:03.149Z,32.65
2022-11-10T19:16:51.107Z,30.02
2022-11-10T19:19:37.439Z,33.42
2022-11-10T19:22:23.661Z,32.45
2022-11-10T19:25:10.176Z,32.80
2022-11-10T19:27:56.953Z,34.42
2022-11-10T19:30:43.177Z,29.15
2022-11-10T19:33:31.686Z,39.10
2022-11-10T19:36:18.846Z,32.88
2022-11-10T19:39:05.455Z,29.15
2022-11-10T19:41:51.861Z,31.60
2022-11-10T19:44:37.881Z,38.78
2022-11-10T19:47:24.319Z,32.53
2022-11-10T19:50:12.150Z,31.67
2022-11-10T19:52:58.504Z,33.92
2022-11-10T19:55:44.875Z,35.40
2022-11-10T19:58:31.393Z,34.28
2022-11-10T20:01:18.353Z,35.28
2022-11-10T20:04:05.747Z,34.97
2022-11-10T20:07:13.968Z,29.63
2022-11-10T20:10:00.467Z,31.45
2022-11-10T20:12:46.948Z,31.95
2022-11-10T20:15:33.052Z,36.53
2022-11-10T20:18:19.465Z,32.70
2022-11-10T20:21:06.114Z,30.63
2022-11-10T20:23:54.862Z,29.55
2022-11-10T20:26:41.015Z,27.65
2022-11-10T20:29:27.363Z,31.13
2022-11-10T20:32:13.632Z,26.35
2022-11-10T20:35:00.471Z,32.13
2022-11-10T20:37:46.838Z,37.35
2022-11-10T20:40:49.400Z,35.40
2022-11-10T20:43:36.442Z,31.13
2022-11-10T20:46:48.172Z,32.97
2022-11-10T20:49:29.466Z,32.50
2022-11-10T20:52:15.770Z,45.65
2022-11-10T20:55:02.541Z,33.15
2022-11-10T20:57:50.528Z,38.80
2022-11-10T21:00:36.492Z,45.05
2022-11-10T21:03:23.615Z,48.55
2022-11-10T21:06:10.484Z,39.08
2022-11-10T21:08:59.368Z,44.20
2022-11-10T21:14:50.947Z,34.53
2022-11-10T21:17:41.538Z,35.83
2022-11-10T21:20:30.260Z,33.35
2022-11-10T21:23:16.923Z,36.28
2022-11-10T21:26:03.400Z,37.92
2022-11-10T21:28:49.806Z,40.45
2022-11-10T21:31:37.393Z,39.50
2022-11-10T21:34:23.819Z,39.83
2022-11-10T21:37:10.145Z,35.65
2022-11-10T21:39:56.829Z,35.25
2022-11-10T21:42:43.333Z,34.40
2022-11-10T21:45:29.990Z,37.05
2022-11-10T21:48:17.382Z,36.85
2022-11-10T21:51:04.369Z,41.13
2022-11-10T21:53:50.571Z,34.08
2022-11-10T21:56:36.770Z,34.88
2022-11-10T21:59:23.367Z,41.22
2022-11-10T22:02:10.697Z,35.88
2022-11-10T22:04:58.438Z,36.55
2022-11-10T22:07:45.047Z,45.25
2022-11-10T22:10:48.718Z,37.28
2022-11-10T22:13:52.262Z,39.67
2022-11-10T22:16:59.136Z,36.72
2022-11-10T22:19:45.619Z,42.85
2022-11-10T22:22:33.290Z,49.97
2022-11-10T22:25:19.778Z,40.92
2022-11-10T22:28:06.656Z,43.30
2022-11-10T22:30:53.098Z,35.97
2022-11-10T22:33:40.058Z,40.42
2022-11-10T22:36:26.515Z,32.80
2022-11-10T22:39:14.266Z,30.63
2022-11-10T22:42:18.392Z,30.35
2022-11-10T22:45:04.480Z,32.90
2022-11-10T22:48:19.682Z,32.97
2022-11-10T22:51:05.866Z,30.65
2022-11-10T22:53:52.268Z,26.55
2022-11-10T22:56:40.220Z,27.50
2022-11-10T22:59:26.360Z,30.75
2022-11-10T23:02:12.493Z,26.80
2022-11-10T23:04:58.852Z,23.48
2022-11-10T23:07:45.199Z,30.25
2022-11-10T23:10:31.573Z,25.38
2022-11-10T23:13:19.523Z,30.77
2022-11-10T23:16:06.661Z,26.65
2022-11-10T23:18:53.730Z,24.58
2022-11-10T23:21:40.072Z,27.35
2022-11-10T23:24:26.354Z,23.90
2022-11-10T23:27:12.369Z,25.27
2022-11-10T23:30:03.202Z,22.88
2022-11-10T23:32:49.396Z,26.23
2022-11-10T23:35:35.540Z,23.45
2022-11-10T23:38:22.072Z,23.30
2022-11-10T23:41:09.091Z,22.10
2022-11-10T23:43:55.358Z,21.70
2022-11-10T23:46:43.545Z,26.02
2022-11-10T23:49:29.932Z,26.67
2022-11-10T23:52:16.254Z,25.75
2022-11-10T23:55:02.334Z,20.95
2022-11-10T23:57:48.846Z,23.60
